sensor_id;sensor_type;location;lat;lon;timestamp;pressure;altitude;pressure_sealevel;temperature;humidity
24858;BME280;12935;50.782;6.074;2023-02-01T00:01:49;100027.53;;;5.58;100.00
24858;BME280;12935;50.782;6.074;2023-02-01T00:04:15;100022.91;;;5.59;100.00
24858;BME280;12935;50.782;6.074;2023-02-01T00:06:40;100024.94;;;5.62;100.00
24858;BME280;12935;50.782;6.074;2023-02-01T00:09:06;100034.28;;;5.64;100.00
24858;BME280;12935;50.782;6.074;2023-02-01T00:11:31;100023.59;;;5.56;100.00
24858;BME280;12935;50.782;6.074;2023-02-01T00:13:57;100013.97;;;5.58;100.00
24858;BME280;12935;50.782;6.074;2023-02-01T00:16:24;100023.59;;;5.56;100.00
24858;BME280;12935;50.782;6.074;2023-02-01T00:18:51;100023.78;;;5.63;100.00
24858;BME280;12935;50.782;6.074;2023-02-01T00:21:19;100020.97;;;5.59;100.00
24858;BME280;12935;50.782;6.074;2023-02-01T00:23:45;100032.72;;;5.63;100.00
24858;BME280;12935;50.782;6.074;2023-02-01T00:26:19;100014.41;;;5.60;100.00
24858;BME280;12935;50.782;6.074;2023-02-01T00:28:45;100015.66;;;5.63;100.00
24858;BME280;12935;50.782;6.074;2023-02-01T00:31:10;100009.53;;;5.66;100.00
24858;BME280;12935;50.782;6.074;2023-02-01T00:33:36;100017.91;;;5.61;100.00
24858;BME280;12935;50.782;6.074;2023-02-01T00:36:06;100013.47;;;5.69;100.00
24858;BME280;12935;50.782;6.074;2023-02-01T00:38:34;100009.16;;;5.68;100.00
24858;BME280;12935;50.782;6.074;2023-02-01T00:41:18;100012.50;;;5.61;100.00
24858;BME280;12935;50.782;6.074;2023-02-01T00:43:45;100011.72;;;5.60;100.00
24858;BME280;12935;50.782;6.074;2023-02-01T00:46:12;100006.53;;;5.55;100.00
24858;BME280;12935;50.782;6.074;2023-02-01T00:48:38;100009.09;;;5.64;100.00
24858;BME280;12935;50.782;6.074;2023-02-01T00:51:06;100011.38;;;5.62;100.00
24858;BME280;12935;50.782;6.074;2023-02-01T00:53:31;100021.75;;;5.60;100.00
24858;BME280;12935;50.782;6.074;2023-02-01T00:55:57;99998.94;;;5.61;100.00
24858;BME280;12935;50.782;6.074;2023-02-01T00:58:22;100000.69;;;5.69;100.00
24858;BME280;12935;50.782;6.074;2023-02-01T01:01:00;100011.53;;;5.69;100.00
24858;BME280;12935;50.782;6.074;2023-02-01T01:03:25;100004.47;;;5.64;100.00
24858;BME280;12935;50.782;6.074;2023-02-01T01:05:51;99993.69;;;5.68;100.00
24858;BME280;12935;50.782;6.074;2023-02-01T01:08:16;99982.06;;;5.68;100.00
24858;BME280;12935;50.782;6.074;2023-02-01T01:10:42;99972.00;;;5.84;100.00
24858;BME280;12935;50.782;6.074;2023-02-01T01:13:08;99948.50;;;5.72;100.00
24858;BME280;12935;50.782;6.074;2023-02-01T01:15:40;99932.75;;;5.78;100.00
24858;BME280;12935;50.782;6.074;2023-02-01T01:18:06;99944.09;;;5.83;100.00
24858;BME280;12935;50.782;6.074;2023-02-01T01:20:35;99948.13;;;5.74;100.00
24858;BME280;12935;50.782;6.074;2023-02-01T01:23:00;99929.59;;;5.60;100.00
24858;BME280;12935;50.782;6.074;2023-02-01T01:25:26;99954.34;;;5.74;100.00
24858;BME280;12935;50.782;6.074;2023-02-01T01:27:51;99955.84;;;5.72;100.00
24858;BME280;12935;50.782;6.074;2023-02-01T01:30:16;99967.47;;;5.72;100.00
24858;BME280;12935;50.782;6.074;2023-02-01T01:32:42;99979.72;;;5.66;100.00
24858;BME280;12935;50.782;6.074;2023-02-01T01:35:08;99993.69;;;5.68;100.00
24858;BME280;12935;50.782;6.074;2023-02-01T01:37:33;99996.25;;;5.77;100.00
24858;BME280;12935;50.782;6.074;2023-02-01T01:40:00;99998.31;;;5.68;100.00
24858;BME280;12935;50.782;6.074;2023-02-01T01:42:26;99985.16;;;5.66;100.00
24858;BME280;12935;50.782;6.074;2023-02-01T01:45:05;99988.09;;;5.61;100.00
24858;BME280;12935;50.782;6.074;2023-02-01T01:47:36;99990.47;;;5.62;100.00
24858;BME280;12935;50.782;6.074;2023-02-01T01:50:04;99986.19;;;5.61;100.00
24858;BME280;12935;50.782;6.074;2023-02-01T01:52:31;99987.22;;;5.57;100.00
24858;BME280;12935;50.782;6.074;2023-02-01T01:54:57;99987.91;;;5.54;100.00
24858;BME280;12935;50.782;6.074;2023-02-01T01:57:26;99980.75;;;5.61;100.00
24858;BME280;12935;50.782;6.074;2023-02-01T02:00:15;99987.31;;;5.60;100.00
24858;BME280;12935;50.782;6.074;2023-02-01T02:02:44;99985.50;;;5.64;100.00
24858;BME280;12935;50.782;6.074;2023-02-01T02:05:12;99979.53;;;5.59;100.00
24858;BME280;12935;50.782;6.074;2023-02-01T02:07:41;99982.34;;;5.62;100.00
24858;BME280;12935;50.782;6.074;2023-02-01T02:10:11;99974.81;;;5.72;100.00
24858;BME280;12935;50.782;6.074;2023-02-01T02:12:42;99972.97;;;5.76;100.00
24858;BME280;12935;50.782;6.074;2023-02-01T02:15:11;99964.94;;;5.79;100.00
24858;BME280;12935;50.782;6.074;2023-02-01T02:18:05;99984.19;;;5.74;100.00
24858;BME280;12935;50.782;6.074;2023-02-01T02:21:01;99970.63;;;5.74;100.00
24858;BME280;12935;50.782;6.074;2023-02-01T02:23:56;99962.84;;;5.73;100.00
24858;BME280;12935;50.782;6.074;2023-02-01T02:26:49;99948.94;;;5.74;100.00
24858;BME280;12935;50.782;6.074;2023-02-01T02:34:52;99964.75;;;5.72;100.00
24858;BME280;12935;50.782;6.074;2023-02-01T02:40:10;99967.47;;;5.72;100.00
24858;BME280;12935;50.782;6.074;2023-02-01T02:43:12;99974.38;;;5.85;100.00
24858;BME280;12935;50.782;6.074;2023-02-01T02:46:12;99968.00;;;5.78;100.00
24858;BME280;12935;50.782;6.074;2023-02-01T02:49:18;99970.38;;;5.79;100.00
24858;BME280;12935;50.782;6.074;2023-02-01T02:54:38;99968.34;;;5.76;100.00
24858;BME280;12935;50.782;6.074;2023-02-01T02:57:31;99971.75;;;5.73;100.00
24858;BME280;12935;50.782;6.074;2023-02-01T03:00:22;99969.03;;;5.73;100.00
24858;BME280;12935;50.782;6.074;2023-02-01T03:03:08;99974.22;;;5.78;100.00
24858;BME280;12935;50.782;6.074;2023-02-01T03:05:52;99970.19;;;5.72;100.00
24858;BME280;12935;50.782;6.074;2023-02-01T03:08:20;99975.50;;;5.69;100.00
24858;BME280;12935;50.782;6.074;2023-02-01T03:10:53;99963.09;;;5.68;100.00
24858;BME280;12935;50.782;6.074;2023-02-01T03:21:20;99963.59;;;5.57;100.00
24858;BME280;12935;50.782;6.074;2023-02-01T03:23:48;99949.38;;;5.60;100.00
24858;BME280;12935;50.782;6.074;2023-02-01T03:26:16;99965.53;;;5.57;100.00
24858;BME280;12935;50.782;6.074;2023-02-01T03:28:49;99956.84;;;5.51;100.00
24858;BME280;12935;50.782;6.074;2023-02-01T03:31:17;99954.53;;;5.50;100.00
24858;BME280;12935;50.782;6.074;2023-02-01T03:33:42;99960.28;;;5.48;100.00
24858;BME280;12935;50.782;6.074;2023-02-01T03:36:28;99963.69;;;5.45;100.00
24858;BME280;12935;50.782;6.074;2023-02-01T03:41:52;99948.22;;;5.46;100.00
24858;BME280;12935;50.782;6.074;2023-02-01T03:44:33;99953.09;;;5.40;100.00
24858;BME280;12935;50.782;6.074;2023-02-01T03:47:05;99953.38;;;5.35;100.00
24858;BME280;12935;50.782;6.074;2023-02-01T03:49:37;99947.84;;;5.32;100.00
24858;BME280;12935;50.782;6.074;2023-02-01T03:52:05;99948.72;;;5.36;100.00
24858;BME280;12935;50.782;6.074;2023-02-01T03:54:32;99939.28;;;5.29;100.00
24858;BME280;12935;50.782;6.074;2023-02-01T03:57:00;99935.56;;;5.22;100.00
24858;BME280;12935;50.782;6.074;2023-02-01T03:59:27;99951.31;;;5.16;100.00
24858;BME280;12935;50.782;6.074;2023-02-01T04:01:52;99949.63;;;5.12;100.00
24858;BME280;12935;50.782;6.074;2023-02-01T04:04:18;99945.00;;;5.12;100.00
24858;BME280;12935;50.782;6.074;2023-02-01T04:06:49;99942.75;;;5.14;100.00
24858;BME280;12935;50.782;6.074;2023-02-01T04:09:15;99929.88;;;5.11;100.00
24858;BME280;12935;50.782;6.074;2023-02-01T04:11:41;99940.97;;;5.06;100.00
24858;BME280;12935;50.782;6.074;2023-02-01T04:14:07;99937.81;;;5.04;100.00
24858;BME280;12935;50.782;6.074;2023-02-01T04:16:33;99946.31;;;5.03;100.00
24858;BME280;12935;50.782;6.074;2023-02-01T04:18:58;99965.50;;;4.98;100.00
24858;BME280;12935;50.782;6.074;2023-02-01T04:21:25;99956.81;;;4.92;100.00
24858;BME280;12935;50.782;6.074;2023-02-01T04:23:50;99961.44;;;4.91;100.00
24858;BME280;12935;50.782;6.074;2023-02-01T04:26:15;99966.69;;;4.84;100.00
24858;BME280;12935;50.782;6.074;2023-02-01T04:28:41;99969.72;;;4.83;100.00
24858;BME280;12935;50.782;6.074;2023-02-01T04:31:06;99973.44;;;4.78;100.00
24858;BME280;12935;50.782;6.074;2023-02-01T04:33:32;99970.28;;;4.76;100.00
24858;BME280;12935;50.782;6.074;2023-02-01T04:35:57;99966.78;;;4.76;100.00
24858;BME280;12935;50.782;6.074;2023-02-01T04:38:22;99967.47;;;4.73;100.00
24858;BME280;12935;50.782;6.074;2023-02-01T04:40:48;99974.28;;;4.67;100.00
24858;BME280;12935;50.782;6.074;2023-02-01T04:43:13;99982.75;;;4.65;100.00
24858;BME280;12935;50.782;6.074;2023-02-01T04:45:39;99976.19;;;4.66;100.00
24858;BME280;12935;50.782;6.074;2023-02-01T04:48:04;99979.00;;;4.70;100.00
24858;BME280;12935;50.782;6.074;2023-02-01T04:50:30;99980.16;;;4.69;100.00
24858;BME280;12935;50.782;6.074;2023-02-01T04:52:55;99982.16;;;4.72;100.00
24858;BME280;12935;50.782;6.074;2023-02-01T04:55:20;99970.56;;;4.71;100.00
24858;BME280;12935;50.782;6.074;2023-02-01T04:57:46;99968.03;;;4.78;100.00
24858;BME280;12935;50.782;6.074;2023-02-01T05:00:11;99951.34;;;4.76;100.00
24858;BME280;12935;50.782;6.074;2023-02-01T05:02:38;99945.59;;;4.78;100.00
24858;BME280;12935;50.782;6.074;2023-02-01T05:05:04;99942.78;;;4.74;100.00
24858;BME280;12935;50.782;6.074;2023-02-01T05:07:29;99953.06;;;4.69;100.00
24858;BME280;12935;50.782;6.074;2023-02-01T05:09:55;99952.47;;;4.75;100.00
24858;BME280;12935;50.782;6.074;2023-02-01T05:12:20;99956.13;;;4.67;100.00
24858;BME280;12935;50.782;6.074;2023-02-01T05:15:04;99941.31;;;4.77;100.00
24858;BME280;12935;50.782;6.074;2023-02-01T05:17:30;99951.94;;;4.70;100.00
24858;BME280;12935;50.782;6.074;2023-02-01T05:19:55;99950.94;;;4.62;100.00
24858;BME280;12935;50.782;6.074;2023-02-01T05:22:20;99940.34;;;4.57;100.00
24858;BME280;12935;50.782;6.074;2023-02-01T05:24:46;99947.56;;;4.65;100.00
24858;BME280;12935;50.782;6.074;2023-02-01T05:27:11;99927.13;;;4.68;100.00
24858;BME280;12935;50.782;6.074;2023-02-01T05:29:36;99924.31;;;4.64;100.00
24858;BME280;12935;50.782;6.074;2023-02-01T05:32:02;99943.06;;;4.57;100.00
24858;BME280;12935;50.782;6.074;2023-02-01T05:34:27;99934.50;;;4.55;100.00
24858;BME280;12935;50.782;6.074;2023-02-01T05:36:52;99941.50;;;4.56;100.00
24858;BME280;12935;50.782;6.074;2023-02-01T05:39:18;99936.63;;;4.62;100.00
24858;BME280;12935;50.782;6.074;2023-02-01T05:41:44;99929.78;;;4.52;100.00
24858;BME280;12935;50.782;6.074;2023-02-01T05:44:10;99938.13;;;4.47;100.00
24858;BME280;12935;50.782;6.074;2023-02-01T05:46:36;99940.38;;;4.45;100.00
24858;BME280;12935;50.782;6.074;2023-02-01T05:49:02;99960.78;;;4.54;100.00
24858;BME280;12935;50.782;6.074;2023-02-01T05:51:27;99961.69;;;4.46;100.00
24858;BME280;12935;50.782;6.074;2023-02-01T05:53:52;99965.41;;;4.54;100.00
24858;BME280;12935;50.782;6.074;2023-02-01T05:56:18;99943.88;;;4.45;100.00
24858;BME280;12935;50.782;6.074;2023-02-01T05:58:43;99948.94;;;4.47;100.00
24858;BME280;12935;50.782;6.074;2023-02-01T06:01:08;99939.84;;;4.39;100.00
24858;BME280;12935;50.782;6.074;2023-02-01T06:03:34;99943.75;;;4.42;100.00
24858;BME280;12935;50.782;6.074;2023-02-01T06:05:59;99945.91;;;4.48;100.00
24858;BME280;12935;50.782;6.074;2023-02-01T06:08:26;99934.78;;;4.38;100.00
24858;BME280;12935;50.782;6.074;2023-02-01T06:10:57;99939.63;;;4.32;100.00
24858;BME280;12935;50.782;6.074;2023-02-01T06:13:22;99935.78;;;4.33;100.00
24858;BME280;12935;50.782;6.074;2023-02-01T06:15:48;99935.13;;;4.24;100.00
24858;BME280;12935;50.782;6.074;2023-02-01T06:18:13;99928.22;;;4.27;100.00
24858;BME280;12935;50.782;6.074;2023-02-01T06:20:40;99945.81;;;4.33;100.00
24858;BME280;12935;50.782;6.074;2023-02-01T06:23:06;99941.22;;;4.21;100.00
24858;BME280;12935;50.782;6.074;2023-02-01T06:25:31;99947.63;;;4.29;100.00
24858;BME280;12935;50.782;6.074;2023-02-01T06:28:00;99953.81;;;4.29;100.00
24858;BME280;12935;50.782;6.074;2023-02-01T06:30:25;99960.59;;;4.23;100.00
24858;BME280;12935;50.782;6.074;2023-02-01T06:32:51;99955.53;;;4.21;100.00
24858;BME280;12935;50.782;6.074;2023-02-01T06:35:18;99954.59;;;4.30;100.00
24858;BME280;12935;50.782;6.074;2023-02-01T06:37:44;99945.06;;;4.20;100.00
24858;BME280;12935;50.782;6.074;2023-02-01T06:40:11;99960.03;;;4.17;100.00
24858;BME280;12935;50.782;6.074;2023-02-01T06:42:36;99965.56;;;4.21;100.00
24858;BME280;12935;50.782;6.074;2023-02-01T06:45:01;99966.13;;;4.14;100.00
24858;BME280;12935;50.782;6.074;2023-02-01T06:47:27;99974.91;;;4.11;100.00
24858;BME280;12935;50.782;6.074;2023-02-01T06:49:52;99971.75;;;4.09;100.00
24858;BME280;12935;50.782;6.074;2023-02-01T06:52:18;99981.09;;;4.12;100.00
24858;BME280;12935;50.782;6.074;2023-02-01T06:54:43;99979.97;;;4.13;100.00
24858;BME280;12935;50.782;6.074;2023-02-01T06:57:08;99983.47;;;4.13;100.00
24858;BME280;12935;50.782;6.074;2023-02-01T06:59:34;99966.69;;;4.08;100.00
24858;BME280;12935;50.782;6.074;2023-02-01T07:01:59;99969.03;;;4.09;100.00
24858;BME280;12935;50.782;6.074;2023-02-01T07:04:24;99968.84;;;4.02;100.00
24858;BME280;12935;50.782;6.074;2023-02-01T07:06:49;99977.59;;;3.99;100.00
24858;BME280;12935;50.782;6.074;2023-02-01T07:09:15;99983.94;;;4.03;100.00
24858;BME280;12935;50.782;6.074;2023-02-01T07:11:40;100002.28;;;4.10;100.00
24858;BME280;12935;50.782;6.074;2023-02-01T07:14:11;99999.56;;;4.10;100.00
24858;BME280;12935;50.782;6.074;2023-02-01T07:16:36;99999.03;;;4.16;100.00
24858;BME280;12935;50.782;6.074;2023-02-01T07:19:03;99994.63;;;4.12;100.00
24858;BME280;12935;50.782;6.074;2023-02-01T07:21:29;99992.63;;;4.09;100.00
24858;BME280;12935;50.782;6.074;2023-02-01T07:23:54;100007.47;;;4.15;100.00
24858;BME280;12935;50.782;6.074;2023-02-01T07:26:20;99999.03;;;4.16;100.00
24858;BME280;12935;50.782;6.074;2023-02-01T07:28:46;99996.78;;;4.18;100.00
24858;BME280;12935;50.782;6.074;2023-02-01T07:31:14;100000.72;;;4.21;100.00
24858;BME280;12935;50.782;6.074;2023-02-01T07:33:44;99999.16;;;4.20;100.00
24858;BME280;12935;50.782;6.074;2023-02-01T07:36:12;99996.78;;;4.18;100.00
24858;BME280;12935;50.782;6.074;2023-02-01T07:38:38;99995.66;;;4.19;100.00
24858;BME280;12935;50.782;6.074;2023-02-01T07:41:04;99995.88;;;4.14;100.00
24858;BME280;12935;50.782;6.074;2023-02-01T07:43:31;100005.09;;;4.13;100.00
24858;BME280;12935;50.782;6.074;2023-02-01T07:45:58;100002.28;;;4.10;100.00
24858;BME280;12935;50.782;6.074;2023-02-01T07:48:24;99997.31;;;4.12;100.00
24858;BME280;12935;50.782;6.074;2023-02-01T07:51:11;100006.22;;;4.12;100.00
24858;BME280;12935;50.782;6.074;2023-02-01T07:53:38;100003.06;;;4.10;100.00
24858;BME280;12935;50.782;6.074;2023-02-01T07:56:08;99998.91;;;4.13;100.00
24858;BME280;12935;50.782;6.074;2023-02-01T07:58:35;100005.78;;;4.10;100.00
24858;BME280;12935;50.782;6.074;2023-02-01T08:01:00;99998.13;;;4.00;100.00
24858;BME280;12935;50.782;6.074;2023-02-01T08:03:44;100000.81;;;4.00;100.00
24858;BME280;12935;50.782;6.074;2023-02-01T08:06:09;100003.31;;;4.05;100.00
24858;BME280;12935;50.782;6.074;2023-02-01T08:08:35;99997.09;;;4.05;100.00
24858;BME280;12935;50.782;6.074;2023-02-01T08:11:01;99994.28;;;4.01;100.00
24858;BME280;12935;50.782;6.074;2023-02-01T08:13:27;100002.53;;;4.05;100.00
24858;BME280;12935;50.782;6.074;2023-02-01T08:15:57;100000.38;;;4.10;100.00
24858;BME280;12935;50.782;6.074;2023-02-01T08:18:23;100007.59;;;4.18;100.00
24858;BME280;12935;50.782;6.074;2023-02-01T08:20:48;100008.84;;;4.21;100.00
24858;BME280;12935;50.782;6.074;2023-02-01T08:23:13;100012.88;;;4.27;100.00
24858;BME280;12935;50.782;6.074;2023-02-01T08:25:39;100016.50;;;4.31;100.00
24858;BME280;12935;50.782;6.074;2023-02-01T08:28:06;100015.69;;;4.31;100.00
24858;BME280;12935;50.782;6.074;2023-02-01T08:30:31;100023.25;;;4.37;100.00
24858;BME280;12935;50.782;6.074;2023-02-01T08:32:57;100027.53;;;4.38;100.00
24858;BME280;12935;50.782;6.074;2023-02-01T08:35:22;100018.84;;;4.45;100.00
24858;BME280;12935;50.782;6.074;2023-02-01T08:37:49;100028.31;;;4.51;100.00
24858;BME280;12935;50.782;6.074;2023-02-01T08:40:15;100034.84;;;4.62;100.00
24858;BME280;12935;50.782;6.074;2023-02-01T08:42:41;100035.75;;;4.54;100.00
24858;BME280;12935;50.782;6.074;2023-02-01T08:45:24;100037.22;;;4.64;100.00
24858;BME280;12935;50.782;6.074;2023-02-01T08:47:51;100045.66;;;4.62;100.00
24858;BME280;12935;50.782;6.074;2023-02-01T08:50:16;100040.13;;;4.58;100.00
24858;BME280;12935;50.782;6.074;2023-02-01T08:52:42;100031.81;;;4.51;100.00
24858;BME280;12935;50.782;6.074;2023-02-01T08:55:07;100044.75;;;4.58;100.00
24858;BME280;12935;50.782;6.074;2023-02-01T08:57:33;100036.75;;;4.62;100.00
24858;BME280;12935;50.782;6.074;2023-02-01T08:59:59;100049.38;;;4.70;100.00
24858;BME280;12935;50.782;6.074;2023-02-01T09:02:25;100043.97;;;4.70;100.00
24858;BME280;12935;50.782;6.074;2023-02-01T09:04:51;100046.88;;;4.77;100.00
24858;BME280;12935;50.782;6.074;2023-02-01T09:07:17;100050.94;;;4.83;100.00
24858;BME280;12935;50.782;6.074;2023-02-01T09:09:44;100045.72;;;4.90;100.00
24858;BME280;12935;50.782;6.074;2023-02-01T09:12:09;100059.59;;;4.88;100.00
24858;BME280;12935;50.782;6.074;2023-02-01T09:14:35;100050.13;;;4.94;100.00
24858;BME280;12935;50.782;6.074;2023-02-01T09:17:00;100044.94;;;5.02;100.00
24858;BME280;12935;50.782;6.074;2023-02-01T09:19:25;100041.63;;;5.08;100.00
24858;BME280;12935;50.782;6.074;2023-02-01T09:21:51;100044.88;;;5.14;100.00
24858;BME280;12935;50.782;6.074;2023-02-01T09:24:16;100042.63;;;5.16;100.00
24858;BME280;12935;50.782;6.074;2023-02-01T09:26:41;100048.63;;;5.09;100.00
24858;BME280;12935;50.782;6.074;2023-02-01T09:29:07;100040.84;;;5.08;100.00
24858;BME280;12935;50.782;6.074;2023-02-01T09:31:35;100053.81;;;5.14;100.00
24858;BME280;12935;50.782;6.074;2023-02-01T09:34:01;100041.56;;;5.20;100.00
24858;BME280;12935;50.782;6.074;2023-02-01T09:36:26;100031.53;;;5.21;100.00
24858;BME280;12935;50.782;6.074;2023-02-01T09:38:52;100041.03;;;5.15;100.00
24858;BME280;12935;50.782;6.074;2023-02-01T09:47:14;100027.78;;;5.25;100.00
24858;BME280;12935;50.782;6.074;2023-02-01T09:49:48;100022.06;;;5.43;100.00
24858;BME280;12935;50.782;6.074;2023-02-01T09:52:19;100019.91;;;5.48;100.00
24858;BME280;12935;50.782;6.074;2023-02-01T09:54:52;100019.94;;;5.36;100.00
24858;BME280;12935;50.782;6.074;2023-02-01T09:57:25;100006.59;;;5.43;100.00
24858;BME280;12935;50.782;6.074;2023-02-01T10:00:03;100013.25;;;5.46;100.00
24858;BME280;12935;50.782;6.074;2023-02-01T10:02:30;100011.13;;;5.39;100.00
24858;BME280;12935;50.782;6.074;2023-02-01T10:04:59;100010.09;;;5.44;100.00
24858;BME280;12935;50.782;6.074;2023-02-01T10:07:47;100014.03;;;5.46;100.00
24858;BME280;12935;50.782;6.074;2023-02-01T10:10:30;100016.06;;;5.49;100.00
24858;BME280;12935;50.782;6.074;2023-02-01T10:19:05;100013.47;;;5.69;100.00
24858;BME280;12935;50.782;6.074;2023-02-01T10:21:37;100014.00;;;5.74;100.00
24858;BME280;12935;50.782;6.074;2023-02-01T10:24:32;100016.63;;;5.86;100.00
24858;BME280;12935;50.782;6.074;2023-02-01T10:27:12;100002.72;;;5.88;100.00
24858;BME280;12935;50.782;6.074;2023-02-01T10:29:44;100018.34;;;5.91;100.00
24858;BME280;12935;50.782;6.074;2023-02-01T10:32:27;100024.28;;;5.96;100.00
24858;BME280;12935;50.782;6.074;2023-02-01T10:34:58;100010.53;;;5.89;100.00
24858;BME280;12935;50.782;6.074;2023-02-01T10:37:32;100024.72;;;6.14;100.00
24858;BME280;12935;50.782;6.074;2023-02-01T10:40:24;100012.91;;;6.22;100.00
24858;BME280;12935;50.782;6.074;2023-02-01T10:42:58;100002.59;;;6.47;100.00
24858;BME280;12935;50.782;6.074;2023-02-01T10:45:27;100011.97;;;6.50;100.00
24858;BME280;12935;50.782;6.074;2023-02-01T10:47:55;100020.31;;;6.41;100.00
24858;BME280;12935;50.782;6.074;2023-02-01T10:53:00;100019.34;;;6.49;100.00
24858;BME280;12935;50.782;6.074;2023-02-01T10:55:40;100010.78;;;6.31;100.00
24858;BME280;12935;50.782;6.074;2023-02-01T10:58:19;100006.47;;;6.46;100.00
24858;BME280;12935;50.782;6.074;2023-02-01T11:00:55;100003.91;;;6.53;100.00
24858;BME280;12935;50.782;6.074;2023-02-01T11:03:40;100015.66;;;6.57;100.00
24858;BME280;12935;50.782;6.074;2023-02-01T11:08:55;99998.59;;;6.41;100.00
24858;BME280;12935;50.782;6.074;2023-02-01T11:11:21;99991.19;;;6.73;100.00
24858;BME280;12935;50.782;6.074;2023-02-01T11:13:58;100002.03;;;6.73;100.00
24858;BME280;12935;50.782;6.074;2023-02-01T11:16:36;99984.03;;;6.84;100.00
24858;BME280;12935;50.782;6.074;2023-02-01T11:19:02;99988.09;;;6.75;100.00
24858;BME280;12935;50.782;6.074;2023-02-01T11:21:28;99991.47;;;6.87;100.00
24858;BME280;12935;50.782;6.074;2023-02-01T11:23:54;100000.84;;;6.90;100.00
24858;BME280;12935;50.782;6.074;2023-02-01T11:26:25;99997.03;;;6.75;100.00
24858;BME280;12935;50.782;6.074;2023-02-01T11:29:14;99996.75;;;6.99;100.00
24858;BME280;12935;50.782;6.074;2023-02-01T11:31:39;99993.78;;;7.04;100.00
24858;BME280;12935;50.782;6.074;2023-02-01T11:34:15;99979.50;;;7.50;100.00
24858;BME280;12935;50.782;6.074;2023-02-01T11:36:42;99966.72;;;7.31;100.00
24858;BME280;12935;50.782;6.074;2023-02-01T11:41:59;99959.66;;;7.49;100.00
24858;BME280;12935;50.782;6.074;2023-02-01T11:46:55;99948.03;;;7.29;100.00
24858;BME280;12935;50.782;6.074;2023-02-01T11:49:21;99953.34;;;7.22;100.00
24858;BME280;12935;50.782;6.074;2023-02-01T11:52:03;99937.97;;;7.11;100.00
24858;BME280;12935;50.782;6.074;2023-02-01T11:54:43;99936.38;;;7.29;100.00
24858;BME280;12935;50.782;6.074;2023-02-01T12:00:26;99935.63;;;7.09;100.00
24858;BME280;12935;50.782;6.074;2023-02-01T12:05:48;99942.50;;;6.84;100.00
24858;BME280;12935;50.782;6.074;2023-02-01T12:14:16;99942.72;;;6.94;100.00
24858;BME280;12935;50.782;6.074;2023-02-01T12:17:12;99944.88;;;6.85;100.00
24858;BME280;12935;50.782;6.074;2023-02-01T12:25:09;99943.50;;;6.56;100.00
24858;BME280;12935;50.782;6.074;2023-02-01T12:27:51;99947.00;;;6.57;100.00
24858;BME280;12935;50.782;6.074;2023-02-01T12:30:46;99939.34;;;6.62;100.00
24858;BME280;12935;50.782;6.074;2023-02-01T12:33:24;99919.97;;;6.45;100.00
24858;BME280;12935;50.782;6.074;2023-02-01T12:43:58;99921.34;;;6.54;100.00
24858;BME280;12935;50.782;6.074;2023-02-01T12:46:37;99928.78;;;6.57;100.00
24858;BME280;12935;50.782;6.074;2023-02-01T12:49:22;99920.28;;;6.59;100.00
24858;BME280;12935;50.782;6.074;2023-02-01T12:52:07;99927.81;;;6.50;100.00
24858;BME280;12935;50.782;6.074;2023-02-01T12:54:59;99917.41;;;6.52;100.00
24858;BME280;12935;50.782;6.074;2023-02-01T12:57:35;99915.69;;;6.63;100.00
24858;BME280;12935;50.782;6.074;2023-02-01T13:02:41;99916.69;;;6.55;100.00
24858;BME280;12935;50.782;6.074;2023-02-01T13:05:21;99914.25;;;6.50;100.00
24858;BME280;12935;50.782;6.074;2023-02-01T13:08:14;99917.56;;;6.59;100.00
24858;BME280;12935;50.782;6.074;2023-02-01T13:10:47;99905.47;;;6.56;100.00
24858;BME280;12935;50.782;6.074;2023-02-01T13:13:28;99899.69;;;6.58;100.00
24858;BME280;12935;50.782;6.074;2023-02-01T13:16:16;99912.84;;;6.56;100.00
24858;BME280;12935;50.782;6.074;2023-02-01T13:18:45;99910.22;;;6.59;100.00
24858;BME280;12935;50.782;6.074;2023-02-01T13:21:17;99907.91;;;6.61;100.00
24858;BME280;12935;50.782;6.074;2023-02-01T13:23:46;99911.69;;;6.57;100.00
24858;BME280;12935;50.782;6.074;2023-02-01T13:26:13;99912.13;;;6.59;100.00
24858;BME280;12935;50.782;6.074;2023-02-01T13:28:51;99901.63;;;6.57;100.00
24858;BME280;12935;50.782;6.074;2023-02-01T13:36:56;99902.09;;;6.63;100.00
24858;BME280;12935;50.782;6.074;2023-02-01T13:39:48;99893.69;;;6.68;100.00
24858;BME280;12935;50.782;6.074;2023-02-01T13:42:27;99881.06;;;6.76;100.00
24858;BME280;12935;50.782;6.074;2023-02-01T13:44:58;99884.13;;;6.74;100.00
24858;BME280;12935;50.782;6.074;2023-02-01T13:47:30;99890.97;;;6.68;100.00
24858;BME280;12935;50.782;6.074;2023-02-01T13:50:23;99887.13;;;6.69;100.00
24858;BME280;12935;50.782;6.074;2023-02-01T13:52:58;99891.31;;;6.66;100.00
24858;BME280;12935;50.782;6.074;2023-02-01T13:55:38;99887.19;;;6.73;100.00
24858;BME280;12935;50.782;6.074;2023-02-01T13:58:21;99889.25;;;6.79;100.00
24858;BME280;12935;50.782;6.074;2023-02-01T14:00:49;99888.69;;;6.70;100.00
24858;BME280;12935;50.782;6.074;2023-02-01T14:03:21;99903.06;;;6.71;100.00
24858;BME280;12935;50.782;6.074;2023-02-01T14:08:15;99901.91;;;6.72;100.00
24858;BME280;12935;50.782;6.074;2023-02-01T14:10:57;99899.28;;;6.75;100.00
24858;BME280;12935;50.782;6.074;2023-02-01T14:13:28;99902.38;;;6.77;100.00
24858;BME280;12935;50.782;6.074;2023-02-01T14:16:20;99898.97;;;6.80;100.00
24858;BME280;12935;50.782;6.074;2023-02-01T14:21:30;99897.19;;;6.88;100.00
24858;BME280;12935;50.782;6.074;2023-02-01T14:24:00;99897.97;;;6.88;100.00
24858;BME280;12935;50.782;6.074;2023-02-01T14:29:03;99910.47;;;6.93;100.00
24858;BME280;12935;50.782;6.074;2023-02-01T14:31:52;99903.59;;;6.99;100.00
24858;BME280;12935;50.782;6.074;2023-02-01T14:34:21;99912.53;;;6.99;100.00
24858;BME280;12935;50.782;6.074;2023-02-01T14:36:51;99908.19;;;6.95;100.00
24858;BME280;12935;50.782;6.074;2023-02-01T14:42:13;99905.59;;;7.02;100.00
24858;BME280;12935;50.782;6.074;2023-02-01T14:44:41;99910.38;;;7.09;100.00